Terminal Aerodrome Forecast
Issued by NWS

Home | Current Version | Previous Version | Text Only | Print | Product List | Glossary On
Versions: 1 2 3 4 5 6 7 8 9 10 11 12 13 14 15 16 17 18 19 20 21 22 23 24
000
FTUS43 KDMX 281120
TAFMCW
TAF
KMCW 281120Z 2812/2912 11005KT P6SM VCSH SCT060 OVC120
     FM281700 15008KT 3SM -TSRA BR SCT005 OVC015CB
     FM282100 12005KT P6SM VCSH OVC012
     FM290700 17006KT 3SM -TSRA OVC010CB
     FM291000 17005KT 3SM BR VCSH OVC010=

USA.gov is the U.S. government's official web portal to all federal, state and local government web resources and services.